createdAt,value
2022-08-29T00:00:17.854Z,3.16
2022-08-29T00:05:17.901Z,3.17
2022-08-29T00:10:24.196Z,3.29
2022-08-29T00:15:30.452Z,3.19
2022-08-29T00:20:36.813Z,3.34
2022-08-29T00:25:43.080Z,3.07
2022-08-29T00:30:49.361Z,3.20
2022-08-29T00:35:55.517Z,3.16
2022-08-29T00:41:01.380Z,3.60
2022-08-29T00:46:07.643Z,3.17
2022-08-29T00:51:13.924Z,3.40
2022-08-29T00:56:19.556Z,3.47
2022-08-29T01:01:26.033Z,3.18
2022-08-29T01:06:32.240Z,3.13
2022-08-29T01:11:38.500Z,3.13
2022-08-29T01:16:44.647Z,3.22
2022-08-29T01:21:50.913Z,3.09
2022-08-29T01:26:57.048Z,3.21
2022-08-29T01:32:03.359Z,3.00
2022-08-29T01:37:09.376Z,3.03
2022-08-29T01:42:15.598Z,2.87
2022-08-29T01:47:21.771Z,2.92
2022-08-29T01:52:28.022Z,2.95
2022-08-29T01:57:34.171Z,3.03
2022-08-29T02:02:40.954Z,3.17
2022-08-29T02:07:46.293Z,3.36
2022-08-29T02:12:52.942Z,3.42
2022-08-29T02:17:59.125Z,3.76
2022-08-29T02:23:13.593Z,3.58
2022-08-29T02:28:11.186Z,3.48
2022-08-29T02:33:17.585Z,3.36
2022-08-29T02:38:23.321Z,3.55
2022-08-29T02:43:29.526Z,3.15
2022-08-29T02:48:35.659Z,3.44
2022-08-29T02:53:41.976Z,3.31
2022-08-29T02:58:47.771Z,3.49
2022-08-29T03:03:54.005Z,3.29
2022-08-29T03:09:00.175Z,4.02
2022-08-29T03:14:06.715Z,3.49
2022-08-29T03:19:12.851Z,3.34
2022-08-29T03:24:26.230Z,3.26
2022-08-29T03:29:25.023Z,3.12
2022-08-29T03:34:31.352Z,3.65
2022-08-29T03:39:37.533Z,3.05
2022-08-29T03:44:43.733Z,3.36
2022-08-29T03:49:49.829Z,3.45
2022-08-29T03:54:56.144Z,3.42
2022-08-29T04:00:01.870Z,3.24
2022-08-29T04:05:08.551Z,3.81
2022-08-29T04:10:13.874Z,3.44
2022-08-29T04:15:20.217Z,3.62
2022-08-29T04:20:26.351Z,3.66
2022-08-29T04:25:36.768Z,3.79
2022-08-29T04:30:38.479Z,3.89
2022-08-29T04:35:44.798Z,3.75
2022-08-29T04:40:51.022Z,3.74
2022-08-29T04:45:57.493Z,4.09
2022-08-29T04:51:03.809Z,3.88
2022-08-29T04:56:10.120Z,3.72
2022-08-29T05:01:16.290Z,3.78
2022-08-29T05:06:22.868Z,4.04
2022-08-29T05:11:28.824Z,3.72
2022-08-29T05:16:35.224Z,3.90
2022-08-29T05:21:41.425Z,4.19
2022-08-29T05:26:48.037Z,4.24
2022-08-29T05:31:54.177Z,4.16
2022-08-29T05:37:00.566Z,4.45
2022-08-29T05:42:06.924Z,4.31
2022-08-29T05:47:13.283Z,4.03
2022-08-29T05:52:19.490Z,3.88
2022-08-29T05:57:26.801Z,3.90
2022-08-29T06:02:33.054Z,4.20
2022-08-29T06:07:39.341Z,4.29
2022-08-29T06:12:45.568Z,5.23
2022-08-29T06:17:51.930Z,5.06
2022-08-29T06:24:24.590Z,5.66
2022-08-29T06:29:30.893Z,5.37
2022-08-29T06:35:14.687Z,5.81
2022-08-29T06:40:21.038Z,5.82
2022-08-29T06:45:27.101Z,5.31
2022-08-29T06:50:33.441Z,5.91
2022-08-29T06:55:39.115Z,5.19
2022-08-29T07:00:49.554Z,5.31
2022-08-29T07:05:51.017Z,5.50
2022-08-29T07:10:57.230Z,5.52
2022-08-29T07:16:03.445Z,5.28
2022-08-29T07:21:09.841Z,5.74
2022-08-29T07:26:16.105Z,5.76
2022-08-29T07:31:22.387Z,6.00
2022-08-29T07:36:28.437Z,5.61
2022-08-29T07:41:34.736Z,4.60
2022-08-29T07:46:40.838Z,5.74
2022-08-29T07:51:47.057Z,4.90
2022-08-29T07:56:53.167Z,5.29
2022-08-29T08:01:59.661Z,5.04
2022-08-29T08:07:05.709Z,5.34
2022-08-29T08:12:11.851Z,4.56
2022-08-29T08:17:18.192Z,4.22
2022-08-29T08:22:24.518Z,4.50
2022-08-29T08:27:30.668Z,3.84
2022-08-29T08:32:36.918Z,3.16
2022-08-29T08:37:43.045Z,2.60
2022-08-29T08:42:49.310Z,2.61
2022-08-29T08:47:55.380Z,2.90
2022-08-29T08:53:01.725Z,2.28
2022-08-29T08:58:07.907Z,2.33
2022-08-29T09:03:14.232Z,2.27
2022-08-29T09:08:20.223Z,2.45
2022-08-29T09:13:26.774Z,2.33
2022-08-29T09:18:32.938Z,2.19
2022-08-29T09:23:38.793Z,2.04
2022-08-29T09:28:45.078Z,2.33
2022-08-29T09:33:51.611Z,2.15
2022-08-29T09:38:57.262Z,2.09
2022-08-29T09:44:03.565Z,2.07
2022-08-29T09:49:09.849Z,1.89
2022-08-29T09:54:17.239Z,1.96
2022-08-29T09:59:23.318Z,1.91
2022-08-29T10:04:29.579Z,1.97
2022-08-29T10:10:01.563Z,1.66
2022-08-29T10:15:07.775Z,1.86
2022-08-29T10:20:13.918Z,1.75
2022-08-29T10:25:20.643Z,1.60
2022-08-29T10:30:26.391Z,1.83
2022-08-29T10:35:32.706Z,1.84
2022-08-29T10:40:38.857Z,1.66
2022-08-29T10:45:44.685Z,1.61
2022-08-29T10:50:50.818Z,1.71
2022-08-29T10:55:57.089Z,1.57
2022-08-29T11:01:06.932Z,1.65
2022-08-29T11:06:09.198Z,1.59
2022-08-29T11:11:15.287Z,1.76
2022-08-29T11:16:21.751Z,1.48
2022-08-29T11:21:28.187Z,1.80
2022-08-29T11:26:35.422Z,1.63
2022-08-29T11:31:41.692Z,1.47
2022-08-29T11:36:47.893Z,1.49
2022-08-29T11:41:58.198Z,1.55
2022-08-29T11:47:00.146Z,1.64
2022-08-29T11:52:06.046Z,1.43
2022-08-29T11:57:12.273Z,1.35
2022-08-29T12:02:18.462Z,1.32
2022-08-29T12:07:24.642Z,1.28
2022-08-29T12:12:30.810Z,1.48
2022-08-29T12:18:00.433Z,1.18
2022-08-29T12:27:49.258Z,1.42
2022-08-29T12:32:55.474Z,1.64
2022-08-29T12:38:03.415Z,1.45
2022-08-29T12:43:07.354Z,1.42
2022-08-29T12:48:13.556Z,1.76
2022-08-29T12:53:19.650Z,1.46
2022-08-29T12:58:25.974Z,1.42
2022-08-29T13:03:32.122Z,1.58
2022-08-29T13:08:38.427Z,1.66
2022-08-29T13:13:44.539Z,1.44
2022-08-29T13:19:09.729Z,1.60
2022-08-29T13:23:56.562Z,1.51
2022-08-29T13:29:03.056Z,1.52
2022-08-29T13:34:09.193Z,1.42
2022-08-29T13:39:15.330Z,1.58
2022-08-29T13:44:21.429Z,1.36
2022-08-29T13:49:27.648Z,1.60
2022-08-29T13:54:33.749Z,1.61
2022-08-29T13:59:40.114Z,1.77
2022-08-29T14:04:46.291Z,2.08
2022-08-29T14:09:52.405Z,1.59
2022-08-29T14:14:58.571Z,1.55
2022-08-29T14:20:04.784Z,1.51
2022-08-29T14:25:10.905Z,1.34
2022-08-29T14:30:17.238Z,1.75
2022-08-29T14:35:27.442Z,1.42
2022-08-29T14:40:29.413Z,1.45
2022-08-29T14:45:36.370Z,1.66
2022-08-29T14:50:43.010Z,1.34
2022-08-29T14:55:49.228Z,1.30
2022-08-29T15:00:55.486Z,1.25
2022-08-29T15:06:01.665Z,1.40
2022-08-29T15:11:07.896Z,1.62
2022-08-29T15:16:14.062Z,1.25
2022-08-29T15:21:20.430Z,1.05
2022-08-29T15:26:26.549Z,1.14
2022-08-29T15:31:33.198Z,1.33
2022-08-29T15:36:38.721Z,1.13
2022-08-29T15:41:45.104Z,1.06
2022-08-29T15:46:51.416Z,0.83
2022-08-29T15:51:57.553Z,0.79
2022-08-29T15:57:03.792Z,0.63
2022-08-29T16:02:10.256Z,0.81
2022-08-29T16:07:16.361Z,0.84
2022-08-29T16:12:22.542Z,1.04
2022-08-29T16:17:28.648Z,1.07
2022-08-29T16:22:34.958Z,1.03
2022-08-29T16:27:41.115Z,1.03
2022-08-29T16:32:47.497Z,1.09
2022-08-29T16:38:03.244Z,1.18
2022-08-29T16:42:59.603Z,1.10
2022-08-29T16:48:15.832Z,1.04
2022-08-29T16:53:11.651Z,1.31
2022-08-29T16:58:17.909Z,1.32
2022-08-29T17:03:24.089Z,1.35
2022-08-29T17:08:30.279Z,1.68
2022-08-29T17:13:36.502Z,1.68
2022-08-29T17:18:42.830Z,1.64
2022-08-29T17:23:49.255Z,1.76
2022-08-29T17:28:55.473Z,1.75
2022-08-29T17:34:02.402Z,1.92
2022-08-29T17:39:08.705Z,1.85
2022-08-29T17:44:15.086Z,1.72
2022-08-29T17:49:21.416Z,1.87
2022-08-29T17:54:27.137Z,1.98
2022-08-29T17:59:33.626Z,1.73
2022-08-29T18:04:40.302Z,1.69
2022-08-29T18:09:46.482Z,2.02
2022-08-29T18:14:52.910Z,1.75
2022-08-29T18:19:59.034Z,1.70
2022-08-29T18:25:05.476Z,1.91
2022-08-29T18:30:11.581Z,1.61
2022-08-29T18:35:17.882Z,1.71
2022-08-29T18:40:24.220Z,1.92
2022-08-29T18:45:30.730Z,1.73
2022-08-29T18:50:36.863Z,1.86
2022-08-29T18:55:48.749Z,1.81
2022-08-29T19:00:49.297Z,1.74
2022-08-29T19:05:55.569Z,1.83
2022-08-29T19:11:01.733Z,1.84
2022-08-29T19:16:08.158Z,1.89
2022-08-29T19:21:14.338Z,1.90
2022-08-29T19:26:20.587Z,1.71
2022-08-29T19:31:26.736Z,1.94
2022-08-29T19:36:32.897Z,1.91
2022-08-29T19:41:39.067Z,1.87
2022-08-29T19:46:49.242Z,1.95
2022-08-29T19:51:50.986Z,1.88
2022-08-29T19:56:57.345Z,1.89
2022-08-29T20:02:03.572Z,1.91
2022-08-29T20:07:09.471Z,2.29
2022-08-29T20:12:15.629Z,2.01
2022-08-29T20:17:22.051Z,2.02
2022-08-29T20:22:28.180Z,2.43
2022-08-29T20:27:34.688Z,2.16
2022-08-29T20:32:40.625Z,1.98
2022-08-29T20:37:47.010Z,2.37
2022-08-29T20:42:55.500Z,2.02
2022-08-29T20:48:01.723Z,2.11
2022-08-29T20:53:07.837Z,2.19
2022-08-29T20:58:14.697Z,2.24
2022-08-29T21:03:21.105Z,2.25
2022-08-29T21:08:27.471Z,2.29
2022-08-29T21:13:33.586Z,2.33
2022-08-29T21:18:39.820Z,2.44
2022-08-29T21:23:46.121Z,2.25
2022-08-29T21:28:52.389Z,1.97
2022-08-29T21:33:58.181Z,2.31
2022-08-29T21:39:04.625Z,1.86
2022-08-29T21:44:10.830Z,2.28
2022-08-29T21:49:17.132Z,2.29
2022-08-29T21:54:23.277Z,2.23
2022-08-29T21:59:29.701Z,2.04
2022-08-29T22:04:35.845Z,1.85
2022-08-29T22:09:42.130Z,2.03
2022-08-29T22:14:48.264Z,2.07
2022-08-29T22:19:54.543Z,2.16
2022-08-29T22:25:00.773Z,2.11
2022-08-29T22:30:07.081Z,2.16
2022-08-29T22:35:13.707Z,1.98
2022-08-29T22:40:19.747Z,1.98
2022-08-29T22:45:26.029Z,1.99
2022-08-29T22:50:32.249Z,2.12
2022-08-29T22:55:38.355Z,1.96
2022-08-29T23:00:44.531Z,2.07
2022-08-29T23:05:50.919Z,2.01
2022-08-29T23:10:57.163Z,2.25
2022-08-29T23:16:03.312Z,1.78
2022-08-29T23:21:09.469Z,1.69
2022-08-29T23:26:15.152Z,1.86
2022-08-29T23:31:21.515Z,2.12
2022-08-29T23:36:27.580Z,1.73
2022-08-29T23:41:33.953Z,1.88
2022-08-29T23:46:40.118Z,1.74
2022-08-29T23:51:46.307Z,2.06
2022-08-29T23:56:52.502Z,1.96
